Time;durP1;ratioP1;P1;durP2;ratioP2;P2;SDS_P1;SDS_P2;PMS_P1;PMS_P2;Temp;Humidity;BMP_temperature;BMP_pressure;BME280_temperature;BME280_humidity;BME280_pressure;Samples;Min_cycle;Max_cycle;Signal;HPM_P1;HPM_P2
2022/08/27 00:00:14;;;;;;;7.05;3.75;;;17.10;99.90;;;;;;5068920;28;20044;-56
2022/08/27 00:02:41;;;;;;;8.25;3.72;;;17.10;99.90;;;;;;5075236;28;20052;-51
2022/08/27 00:05:07;;;;;;;7.55;3.70;;;17.10;99.90;;;;;;5055888;28;20385;-54
2022/08/27 00:07:34;;;;;;;5.70;3.60;;;17.00;99.90;;;;;;5059125;28;20044;-52
2022/08/27 00:10:01;;;;;;;6.25;3.60;;;17.00;99.90;;;;;;5055859;28;20045;-55
2022/08/27 00:12:29;;;;;;;7.47;3.55;;;17.00;99.90;;;;;;5068491;28;20048;-53
2022/08/27 00:14:57;;;;;;;7.30;3.80;;;17.00;99.90;;;;;;5055519;28;20044;-55
2022/08/27 00:17:24;;;;;;;11.70;4.70;;;17.00;99.90;;;;;;5054988;28;20041;-53
2022/08/27 00:19:51;;;;;;;8.10;4.38;;;16.90;99.90;;;;;;5063815;28;20403;-52
2022/08/27 00:22:17;;;;;;;12.60;4.15;;;16.90;99.90;;;;;;5054451;28;20055;-51
2022/08/27 00:24:44;;;;;;;10.25;4.45;;;16.90;99.90;;;;;;5055313;28;20433;-52
2022/08/27 00:27:14;;;;;;;10.57;5.50;;;16.90;99.90;;;;;;5055713;28;20073;-53
2022/08/27 00:29:42;;;;;;;7.18;4.30;;;16.90;99.90;;;;;;5054301;28;20061;-53
2022/08/27 00:32:09;;;;;;;8.05;4.05;;;16.80;99.90;;;;;;5055733;28;20029;-55
2022/08/27 00:34:35;;;;;;;9.32;4.82;;;16.80;99.90;;;;;;5055260;28;20036;-50
2022/08/27 00:37:02;;;;;;;8.00;4.20;;;16.80;99.90;;;;;;5054949;28;20041;-54
2022/08/27 00:39:29;;;;;;;9.55;4.50;;;16.80;99.90;;;;;;5059950;28;20515;-52
2022/08/27 00:41:56;;;;;;;8.15;3.80;;;16.70;99.90;;;;;;5071664;28;20059;-54
2022/08/27 00:44:23;;;;;;;8.73;3.92;;;16.70;99.90;;;;;;5074050;28;20044;-54
2022/08/27 00:46:49;;;;;;;11.32;4.10;;;16.70;99.90;;;;;;5055280;28;20083;-54
2022/08/27 00:49:17;;;;;;;11.32;3.85;;;16.70;99.90;;;;;;5066769;28;20041;-54
2022/08/27 00:51:43;;;;;;;7.15;3.65;;;16.70;99.90;;;;;;5073502;28;20047;-53
2022/08/27 00:54:16;;;;;;;6.93;4.28;;;16.60;99.90;;;;;;5074662;28;20074;-53
2022/08/27 00:56:44;;;;;;;7.10;4.10;;;16.60;99.90;;;;;;5055448;28;20396;-56
2022/08/27 00:59:17;;;;;;;12.00;4.20;;;16.50;99.90;;;;;;5054056;28;20048;-51
2022/08/27 01:04:29;;;;;;;8.77;4.53;;;16.50;99.90;;;;;;5055151;28;20052;-54
2022/08/27 01:06:56;;;;;;;7.85;4.38;;;16.40;99.90;;;;;;5054986;28;20040;-54
2022/08/27 01:09:23;;;;;;;10.00;4.32;;;16.40;99.90;;;;;;5054965;28;20055;-56
2022/08/27 01:11:49;;;;;;;9.05;4.43;;;16.40;99.90;;;;;;5054864;28;20138;-52
2022/08/27 01:14:16;;;;;;;8.25;4.05;;;16.40;99.90;;;;;;5055086;28;20043;-54
2022/08/27 01:16:43;;;;;;;7.22;4.20;;;16.40;99.90;;;;;;5054889;28;20040;-52
2022/08/27 01:19:10;;;;;;;8.88;4.38;;;16.40;99.90;;;;;;5063570;28;20037;-53
2022/08/27 01:21:37;;;;;;;10.02;4.65;;;16.40;99.90;;;;;;5073749;28;20048;-52
2022/08/27 01:24:04;;;;;;;11.68;4.90;;;16.30;99.90;;;;;;5073753;28;20048;-51
2022/08/27 01:26:30;;;;;;;10.30;4.38;;;16.30;99.90;;;;;;5073886;28;20049;-53
2022/08/27 01:28:57;;;;;;;7.40;4.10;;;16.30;99.90;;;;;;5073705;28;20103;-53
2022/08/27 01:31:24;;;;;;;8.43;4.72;;;16.30;99.90;;;;;;5073497;28;20047;-53
2022/08/27 01:33:51;;;;;;;9.43;4.63;;;16.20;99.90;;;;;;5073582;28;20047;-54
2022/08/27 01:36:18;;;;;;;7.25;3.60;;;16.20;99.90;;;;;;5073550;28;20506;-54
2022/08/27 01:38:44;;;;;;;8.18;3.97;;;16.20;99.90;;;;;;5073682;28;20371;-54
2022/08/27 01:41:14;;;;;;;7.60;4.03;;;16.10;99.90;;;;;;5070851;28;20059;-51
2022/08/27 01:43:41;;;;;;;8.95;3.78;;;16.10;99.90;;;;;;5054263;28;20048;-51
2022/08/27 01:46:07;;;;;;;8.27;4.30;;;16.00;99.90;;;;;;5054227;28;20037;-51
2022/08/27 01:48:34;;;;;;;6.85;3.55;;;15.90;99.90;;;;;;5069441;28;20041;-53
2022/08/27 01:51:01;;;;;;;6.55;3.83;;;15.80;99.90;;;;;;5073276;28;20048;-53
2022/08/27 01:53:28;;;;;;;8.52;3.65;;;15.80;99.90;;;;;;5073330;28;20051;-54
2022/08/27 01:55:54;;;;;;;10.15;4.20;;;15.80;99.90;;;;;;5071751;28;20047;-52
2022/08/27 01:58:21;;;;;;;6.93;3.55;;;15.90;99.90;;;;;;5073172;28;20037;-53
2022/08/27 02:00:48;;;;;;;7.85;3.70;;;15.90;99.90;;;;;;5073251;28;20032;-53
2022/08/27 02:03:22;;;;;;;9.80;3.65;;;15.80;99.90;;;;;;5071799;28;20064;-56
2022/08/27 02:05:48;;;;;;;10.00;4.22;;;15.80;99.90;;;;;;5073195;28;20046;-55
2022/08/27 02:08:16;;;;;;;7.43;3.67;;;15.80;99.90;;;;;;5073228;28;20047;-54
2022/08/27 02:10:43;;;;;;;9.98;3.78;;;15.80;99.90;;;;;;5072862;28;20093;-52
2022/08/27 02:13:11;;;;;;;9.60;4.05;;;15.80;99.90;;;;;;5073131;28;20513;-54
2022/08/27 02:15:38;;;;;;;10.98;3.60;;;15.70;99.90;;;;;;5073216;28;20040;-53
2022/08/27 02:18:05;;;;;;;8.05;3.80;;;15.70;99.90;;;;;;5073023;28;20040;-50
2022/08/27 02:20:31;;;;;;;6.78;3.42;;;15.70;99.90;;;;;;5071084;28;20044;-54
2022/08/27 02:22:58;;;;;;;9.57;3.75;;;15.70;99.90;;;;;;5072946;28;20049;-56
2022/08/27 02:25:26;;;;;;;10.57;4.05;;;15.70;99.90;;;;;;5072952;28;20048;-51
2022/08/27 02:27:58;;;;;;;7.50;4.13;;;15.60;99.90;;;;;;5072914;28;20043;-48
2022/08/27 02:30:26;;;;;;;6.88;4.28;;;15.60;99.90;;;;;;5072708;28;20044;-52
2022/08/27 02:32:53;;;;;;;9.27;4.13;;;15.60;99.90;;;;;;5072700;28;20043;-51
2022/08/27 02:35:19;;;;;;;7.07;3.97;;;15.60;99.90;;;;;;5072978;28;20393;-52
2022/08/27 02:37:46;;;;;;;9.23;4.00;;;15.50;99.90;;;;;;5073014;28;20043;-53
2022/08/27 02:40:16;;;;;;;7.03;4.45;;;15.50;99.90;;;;;;5072915;28;20044;-52
2022/08/27 02:42:43;;;;;;;9.30;4.30;;;15.50;99.90;;;;;;5076835;28;20071;-52
2022/08/27 02:45:10;;;;;;;9.75;4.07;;;15.60;99.90;;;;;;5076871;28;20040;-57
2022/08/27 02:47:36;;;;;;;9.45;4.07;;;15.50;99.90;;;;;;5076886;28;20033;-52
2022/08/27 02:50:03;;;;;;;8.60;4.03;;;15.50;99.90;;;;;;5075938;28;20047;-51
2022/08/27 02:52:30;;;;;;;7.57;3.75;;;15.50;99.90;;;;;;5073735;28;20045;-51
2022/08/27 02:54:57;;;;;;;8.40;4.07;;;15.50;99.90;;;;;;5076831;28;20038;-53
2022/08/27 02:57:24;;;;;;;8.52;4.10;;;15.50;99.90;;;;;;5076610;28;20043;-54
2022/08/27 02:59:51;;;;;;;7.43;3.92;;;15.50;99.90;;;;;;5076604;28;20044;-51
2022/08/27 03:02:18;;;;;;;8.88;3.80;;;15.50;99.90;;;;;;5076259;28;20048;-54
2022/08/27 03:04:45;;;;;;;11.85;4.15;;;15.50;99.90;;;;;;5075678;28;20094;-53
2022/08/27 03:07:11;;;;;;;7.75;3.90;;;15.50;99.90;;;;;;5076542;28;20074;-52
2022/08/27 03:09:44;;;;;;;10.23;4.07;;;15.60;99.90;;;;;;5076457;28;20045;-52
2022/08/27 03:12:11;;;;;;;11.10;4.25;;;15.50;99.90;;;;;;5076265;28;20032;-53
2022/08/27 03:14:38;;;;;;;7.93;4.35;;;15.50;99.90;;;;;;5076251;28;20119;-52
2022/08/27 03:19:50;;;;;;;6.55;4.30;;;15.50;99.90;;;;;;5075285;28;20047;-55
2022/08/27 03:22:17;;;;;;;8.27;4.18;;;15.50;99.90;;;;;;5076256;28;20047;-53
2022/08/27 03:24:44;;;;;;;8.45;3.67;;;15.50;99.90;;;;;;5075069;28;20044;-53
2022/08/27 03:27:11;;;;;;;5.30;3.60;;;15.40;99.90;;;;;;5076191;28;20039;-51
2022/08/27 03:29:38;;;;;;;8.60;4.22;;;15.40;99.90;;;;;;5076018;28;20036;-56
2022/08/27 03:32:05;;;;;;;6.47;3.78;;;15.50;99.90;;;;;;5075782;28;20036;-51
2022/08/27 03:34:32;;;;;;;6.60;3.63;;;15.50;99.90;;;;;;5075895;28;20476;-56
2022/08/27 03:37:00;;;;;;;6.53;3.80;;;15.50;99.90;;;;;;5075931;28;20384;-53
2022/08/27 03:39:27;;;;;;;11.65;4.55;;;15.50;99.90;;;;;;5075807;28;20044;-52
2022/08/27 03:41:54;;;;;;;7.03;3.75;;;15.50;99.90;;;;;;5075650;28;20361;-54
2022/08/27 03:44:21;;;;;;;7.75;4.00;;;15.50;99.90;;;;;;5075746;28;20071;-52
2022/08/27 03:46:48;;;;;;;7.05;4.00;;;15.40;99.90;;;;;;5075713;28;20048;-58
2022/08/27 03:49:14;;;;;;;6.47;3.50;;;15.40;99.90;;;;;;5075730;28;20118;-55
2022/08/27 03:51:45;;;;;;;12.48;3.75;;;15.40;99.90;;;;;;5075607;28;20041;-54
2022/08/27 03:54:12;;;;;;;7.78;3.67;;;15.30;99.90;;;;;;5075719;28;20037;-51
2022/08/27 03:56:40;;;;;;;7.78;4.13;;;15.40;99.90;;;;;;5073821;28;20497;-52
2022/08/27 03:59:07;;;;;;;6.85;3.58;;;15.30;99.90;;;;;;5075601;28;20376;-51
2022/08/27 04:01:34;;;;;;;9.10;3.45;;;15.30;99.90;;;;;;5075223;28;20071;-52
2022/08/27 04:04:01;;;;;;;8.07;3.75;;;15.30;99.90;;;;;;5075454;28;20541;-53
2022/08/27 04:06:28;;;;;;;8.38;3.85;;;15.30;99.90;;;;;;5073960;28;20040;-53
2022/08/27 04:08:55;;;;;;;6.50;3.78;;;15.30;99.90;;;;;;5075667;28;20431;-56
2022/08/27 04:11:22;;;;;;;6.65;3.63;;;15.20;99.90;;;;;;5068917;28;20029;-53
2022/08/27 04:13:49;;;;;;;11.23;3.88;;;15.20;99.90;;;;;;5049405;28;20548;-52
2022/08/27 04:16:15;;;;;;;7.50;3.78;;;15.20;99.90;;;;;;5074119;28;20037;-54
2022/08/27 04:18:42;;;;;;;9.63;4.07;;;15.20;99.90;;;;;;5074247;28;20041;-52
2022/08/27 04:21:10;;;;;;;10.57;4.20;;;15.20;99.90;;;;;;5070954;28;20040;-54
2022/08/27 04:23:37;;;;;;;8.43;3.83;;;15.20;99.90;;;;;;5074901;28;20040;-53
2022/08/27 04:26:04;;;;;;;7.80;3.95;;;15.10;99.90;;;;;;5074971;28;20123;-51
2022/08/27 04:28:31;;;;;;;8.88;3.88;;;15.20;99.90;;;;;;5054958;28;20041;-54
2022/08/27 04:31:04;;;;;;;9.20;3.55;;;15.10;99.90;;;;;;5055551;28;20051;-54
2022/08/27 04:33:31;;;;;;;7.00;3.65;;;15.10;99.90;;;;;;5055379;28;20052;-52
2022/08/27 04:35:58;;;;;;;5.78;3.65;;;15.20;99.90;;;;;;5059111;28;20037;-51
2022/08/27 04:38:24;;;;;;;7.15;3.53;;;15.20;99.90;;;;;;5059279;28;20033;-54
2022/08/27 04:43:36;;;;;;;5.97;3.75;;;15.10;99.90;;;;;;5055419;28;20041;-52
2022/08/27 04:46:03;;;;;;;7.63;3.63;;;15.10;99.90;;;;;;5055653;28;20626;-53
2022/08/27 04:48:30;;;;;;;10.73;3.25;;;15.10;99.90;;;;;;5067952;28;20044;-54
2022/08/27 04:50:57;;;;;;;7.50;3.78;;;15.10;99.90;;;;;;5072065;28;20041;-52
2022/08/27 04:53:24;;;;;;;8.20;3.38;;;15.10;99.90;;;;;;5058635;28;20051;-53
2022/08/27 04:55:50;;;;;;;8.10;3.90;;;15.10;99.90;;;;;;5062764;28;20104;-50
2022/08/27 04:58:17;;;;;;;8.25;3.65;;;15.10;99.90;;;;;;5060154;28;20099;-52
2022/08/27 05:00:45;;;;;;;6.03;3.20;;;15.10;99.90;;;;;;5060234;28;20047;-50
2022/08/27 05:03:12;;;;;;;10.23;3.70;;;15.10;99.90;;;;;;5054473;28;20041;-52
2022/08/27 05:05:39;;;;;;;8.32;3.40;;;15.10;99.90;;;;;;5055065;28;20507;-54
2022/08/27 05:08:09;;;;;;;8.30;3.50;;;15.00;99.90;;;;;;5055272;28;20037;-54
2022/08/27 05:10:36;;;;;;;8.23;3.67;;;15.10;99.90;;;;;;5056989;28;20049;-53
2022/08/27 05:13:03;;;;;;;9.50;3.53;;;15.10;99.90;;;;;;5065551;28;20043;-54
2022/08/27 05:15:30;;;;;;;6.10;3.13;;;15.20;99.90;;;;;;5063975;28;20056;-54
2022/08/27 05:17:59;;;;;;;10.32;3.85;;;15.10;99.90;;;;;;5065111;28;20036;-54
2022/08/27 05:20:26;;;;;;;6.22;2.92;;;15.10;99.90;;;;;;5057313;28;20052;-53
2022/08/27 05:22:53;;;;;;;7.97;3.17;;;15.10;99.90;;;;;;5068071;28;20498;-52
2022/08/27 05:25:20;;;;;;;8.95;3.65;;;15.20;99.90;;;;;;5061057;28;20053;-55
2022/08/27 05:27:47;;;;;;;8.05;3.40;;;15.20;99.90;;;;;;5054869;28;20044;-52
2022/08/27 05:30:13;;;;;;;10.00;3.50;;;15.30;99.90;;;;;;5053381;28;20048;-53
2022/08/27 05:32:40;;;;;;;7.82;3.35;;;15.30;99.90;;;;;;5064845;28;20040;-53
2022/08/27 05:35:08;;;;;;;8.23;3.42;;;15.40;99.90;;;;;;5056917;28;20041;-53
2022/08/27 05:37:39;;;;;;;8.57;3.65;;;15.40;99.90;;;;;;5058616;28;20037;-53
2022/08/27 05:40:06;;;;;;;8.80;3.60;;;15.40;99.90;;;;;;5053364;28;20463;-51
2022/08/27 05:42:33;;;;;;;10.00;3.35;;;15.40;99.90;;;;;;5072311;28;20436;-55
2022/08/27 05:44:59;;;;;;;8.73;3.20;;;15.40;99.90;;;;;;5058690;28;20047;-55
2022/08/27 05:47:26;;;;;;;4.93;3.03;;;15.40;99.90;;;;;;5071881;28;20497;-54
2022/08/27 05:49:53;;;;;;;10.13;3.75;;;15.40;99.90;;;;;;5058650;28;20059;-50
2022/08/27 05:52:20;;;;;;;7.43;3.70;;;15.40;99.90;;;;;;5067271;28;20387;-53
2022/08/27 05:54:47;;;;;;;8.75;3.60;;;15.50;99.90;;;;;;5064857;28;20406;-54
2022/08/27 05:57:14;;;;;;;8.25;3.25;;;15.50;99.90;;;;;;5062895;28;20039;-53
2022/08/27 06:02:27;;;;;;;;;;;15.60;99.90;;;;;;5070725;28;20056;-52
2022/08/27 06:04:54;;;;;;;6.18;3.33;;;15.70;99.90;;;;;;5073028;28;19958;-52
2022/08/27 06:07:21;;;;;;;6.10;3.50;;;15.80;99.90;;;;;;5068469;28;20028;-49
2022/08/27 06:09:47;;;;;;;10.77;4.10;;;15.80;99.90;;;;;;5059857;28;20045;-54
2022/08/27 06:12:14;;;;;;;8.27;3.28;;;15.80;99.90;;;;;;5054224;28;20041;-50
2022/08/27 06:14:41;;;;;;;8.02;3.45;;;15.90;99.90;;;;;;5056115;28;20045;-56
2022/08/27 06:17:08;;;;;;;6.50;3.38;;;16.00;99.90;;;;;;5053417;28;20039;-55
2022/08/27 06:19:35;;;;;;;7.65;3.75;;;16.00;99.90;;;;;;5053890;28;20044;-56
2022/08/27 06:22:02;;;;;;;8.05;3.42;;;16.10;99.90;;;;;;5060834;28;20669;-54
2022/08/27 06:24:37;;;;;;;6.80;3.42;;;16.10;99.90;;;;;;5057069;28;20072;-54
2022/08/27 06:27:04;;;;;;;6.88;3.63;;;16.10;99.90;;;;;;5053742;28;20124;-53
2022/08/27 06:29:33;;;;;;;6.25;3.58;;;16.20;99.90;;;;;;5053625;28;20080;-54
2022/08/27 06:32:00;;;;;;;9.18;3.78;;;16.30;99.90;;;;;;5053626;28;20037;-56
2022/08/27 06:34:27;;;;;;;10.57;3.78;;;16.20;99.90;;;;;;5055636;28;20041;-50
2022/08/27 06:36:54;;;;;;;7.72;3.30;;;16.30;99.90;;;;;;5053733;28;20059;-53
2022/08/27 06:39:21;;;;;;;7.32;3.58;;;16.30;99.90;;;;;;5052321;28;20037;-54
2022/08/27 06:41:51;;;;;;;8.23;3.67;;;16.30;99.90;;;;;;5065448;28;20080;-50
2022/08/27 06:44:20;;;;;;;6.97;3.38;;;16.40;99.90;;;;;;5069076;28;20071;-54
2022/08/27 06:46:47;;;;;;;7.53;3.72;;;16.40;99.90;;;;;;5064360;28;20540;-53
2022/08/27 06:49:14;;;;;;;8.15;3.50;;;16.50;99.90;;;;;;5074290;28;20481;-54
2022/08/27 06:51:41;;;;;;;8.93;3.40;;;16.50;99.90;;;;;;5072503;28;20044;-56
2022/08/27 06:54:08;;;;;;;8.00;3.70;;;16.50;99.90;;;;;;5066625;28;20050;-52
2022/08/27 06:56:35;;;;;;;7.50;3.30;;;16.60;99.90;;;;;;5056087;28;20045;-51
2022/08/27 06:59:01;;;;;;;6.70;3.30;;;16.70;99.90;;;;;;5071596;28;20479;-55
2022/08/27 07:01:30;;;;;;;7.13;3.35;;;16.80;99.90;;;;;;5058519;28;20068;-53
2022/08/27 07:03:57;;;;;;;7.63;3.15;;;16.80;99.90;;;;;;5059479;28;20657;-52
2022/08/27 07:06:24;;;;;;;7.20;3.33;;;16.90;99.90;;;;;;5057635;28;20767;-54
2022/08/27 07:08:50;;;;;;;6.30;3.15;;;16.90;99.90;;;;;;5066612;28;20048;-52
2022/08/27 07:11:19;;;;;;;7.35;3.47;;;17.00;99.90;;;;;;5066391;28;20114;-54
2022/08/27 07:13:46;;;;;;;7.43;3.58;;;17.10;99.90;;;;;;5061394;28;20037;-55
2022/08/27 07:16:13;;;;;;;8.52;3.28;;;17.20;99.90;;;;;;5070776;28;20094;-51
2022/08/27 07:18:40;;;;;;;8.27;3.53;;;17.20;99.90;;;;;;5067564;28;20045;-54
2022/08/27 07:21:06;;;;;;;10.13;4.13;;;17.30;99.90;;;;;;5052874;28;20045;-53
2022/08/27 07:23:33;;;;;;;9.25;3.70;;;17.40;99.90;;;;;;5054534;28;20484;-52
2022/08/27 07:26:00;;;;;;;6.45;3.17;;;17.50;99.90;;;;;;5053778;28;20127;-53
2022/08/27 07:28:27;;;;;;;9.05;3.50;;;17.40;99.90;;;;;;5056704;28;20047;-54
2022/08/27 07:30:53;;;;;;;9.15;3.60;;;17.50;99.90;;;;;;5060113;28;20132;-52
2022/08/27 07:33:20;;;;;;;9.27;3.97;;;17.50;99.90;;;;;;5058014;28;20041;-51
2022/08/27 07:35:48;;;;;;;8.55;3.95;;;17.50;99.90;;;;;;5057671;28;20472;-53
2022/08/27 07:38:15;;;;;;;7.70;3.78;;;17.50;99.90;;;;;;5058535;28;20068;-51
2022/08/27 07:40:41;;;;;;;11.10;4.05;;;17.60;99.90;;;;;;5062359;28;20037;-54
2022/08/27 07:45:55;;;;;;;10.32;3.88;;;17.50;99.90;;;;;;5068760;28;20146;-51
2022/08/27 07:48:22;;;;;;;9.73;4.53;;;17.50;99.90;;;;;;5057346;28;20045;-53
2022/08/27 07:50:50;;;;;;;9.38;4.15;;;17.40;99.90;;;;;;5075863;28;20040;-51
2022/08/27 07:53:16;;;;;;;8.93;4.10;;;17.30;99.90;;;;;;5074801;28;20044;-53
2022/08/27 07:55:44;;;;;;;8.27;4.15;;;17.40;99.90;;;;;;5075719;28;20119;-52
2022/08/27 07:58:11;;;;;;;8.07;3.88;;;17.40;99.90;;;;;;5076101;28;20041;-53
2022/08/27 08:00:43;;;;;;;11.27;4.30;;;17.40;99.90;;;;;;5060475;28;20036;-53
2022/08/27 08:03:10;;;;;;;7.45;3.78;;;17.40;99.90;;;;;;5067567;28;20040;-52
2022/08/27 08:05:37;;;;;;;13.60;4.40;;;17.40;99.90;;;;;;5057282;28;20073;-55
2022/08/27 08:08:04;;;;;;;8.18;4.35;;;17.40;99.90;;;;;;5062082;28;20472;-54
2022/08/27 08:10:31;;;;;;;10.18;4.63;;;17.40;99.90;;;;;;5056993;28;20060;-53
2022/08/27 08:13:01;;;;;;;7.85;4.03;;;17.50;99.90;;;;;;5066382;28;20491;-52
2022/08/27 08:15:28;;;;;;;8.85;3.83;;;17.50;99.90;;;;;;5075187;28;20078;-55
2022/08/27 08:17:54;;;;;;;11.55;4.40;;;17.50;99.90;;;;;;5070937;28;20036;-53
2022/08/27 08:20:21;;;;;;;11.35;3.95;;;17.60;99.90;;;;;;5060903;28;20041;-52
2022/08/27 08:23:08;;;;;;;9.80;3.67;;;17.60;99.90;;;;;;5063815;28;20102;-52
2022/08/27 08:25:36;;;;;;;7.65;3.67;;;17.60;99.90;;;;;;5058872;28;20277;-49
2022/08/27 08:28:04;;;;;;;10.57;3.85;;;17.70;99.90;;;;;;5059367;28;20041;-53
2022/08/27 08:30:31;;;;;;;9.25;3.75;;;17.80;99.90;;;;;;5064380;28;20044;-53
2022/08/27 08:33:01;;;;;;;8.88;3.97;;;17.80;99.90;;;;;;5055686;28;20377;-55
2022/08/27 08:35:28;;;;;;;6.88;3.55;;;17.90;99.90;;;;;;5061234;28;20037;-51
2022/08/27 08:38:06;;;;;;;10.95;3.80;;;17.90;99.90;;;;;;5068206;28;20426;-53
2022/08/27 08:40:32;;;;;;;8.82;3.33;;;18.00;99.90;;;;;;5060413;28;20041;-54
2022/08/27 08:42:59;;;;;;;10.98;3.22;;;18.00;99.90;;;;;;5060363;28;20076;-50
2022/08/27 08:45:26;;;;;;;9.93;2.92;;;18.10;99.90;;;;;;5053748;28;20045;-55
2022/08/27 08:47:55;;;;;;;12.43;3.35;;;18.10;99.90;;;;;;5052821;28;20472;-53
2022/08/27 08:50:22;;;;;;;9.77;3.00;;;18.20;99.90;;;;;;5054081;28;20076;-54
2022/08/27 08:52:48;;;;;;;9.55;3.13;;;18.30;99.90;;;;;;5053505;28;20044;-52
2022/08/27 08:55:15;;;;;;;8.27;2.75;;;18.30;99.90;;;;;;5055631;28;20539;-53
2022/08/27 08:57:42;;;;;;;11.18;2.90;;;18.40;99.90;;;;;;5055247;28;20035;-53
2022/08/27 09:00:12;;;;;;;10.50;3.00;;;18.50;99.90;;;;;;5056097;28;20066;-53
2022/08/27 09:02:39;;;;;;;9.48;3.25;;;18.50;99.90;;;;;;5064073;28;20139;-50
2022/08/27 09:05:07;;;;;;;8.05;3.05;;;18.50;99.90;;;;;;5054846;28;20186;-53
2022/08/27 09:07:34;;;;;;;9.07;2.65;;;18.70;99.90;;;;;;5060306;28;20033;-52
2022/08/27 09:10:02;;;;;;;6.28;2.80;;;18.70;99.90;;;;;;5053431;28;20049;-53
2022/08/27 09:12:29;;;;;;;9.70;2.63;;;18.80;99.90;;;;;;5059756;28;20043;-50
2022/08/27 09:14:56;;;;;;;11.90;3.38;;;18.90;99.90;;;;;;5074095;28;20051;-51
2022/08/27 09:17:23;;;;;;;8.30;2.60;;;19.00;99.90;;;;;;5059374;28;20037;-53
2022/08/27 09:19:51;;;;;;;10.25;2.65;;;19.00;99.90;;;;;;5054939;28;20063;-53
2022/08/27 09:22:18;;;;;;;7.32;3.20;;;19.00;99.90;;;;;;5057777;28;20037;-54
2022/08/27 09:24:45;;;;;;;9.68;3.03;;;19.10;99.90;;;;;;5053455;28;20075;-52
2022/08/27 09:27:13;;;;;;;10.20;3.13;;;19.20;99.90;;;;;;5053206;28;20040;-50
2022/08/27 09:29:40;;;;;;;10.10;3.17;;;19.20;99.90;;;;;;5051995;28;20052;-52
2022/08/27 09:32:07;;;;;;;9.68;2.97;;;19.30;99.40;;;;;;5052793;28;20045;-54
2022/08/27 09:34:34;;;;;;;8.18;2.67;;;19.30;99.60;;;;;;5053071;28;20337;-53
2022/08/27 09:37:01;;;;;;;10.50;3.00;;;19.40;99.40;;;;;;5052914;28;20033;-52
2022/08/27 09:39:28;;;;;;;6.93;2.83;;;19.50;99.40;;;;;;5054792;28;20460;-51
2022/08/27 09:41:54;;;;;;;6.65;2.80;;;19.50;99.60;;;;;;5053501;28;20121;-51
2022/08/27 09:44:21;;;;;;;7.88;2.97;;;19.60;99.00;;;;;;5065423;28;20378;-48
2022/08/27 09:46:48;;;;;;;8.48;3.13;;;19.60;99.10;;;;;;5060966;28;20043;-52
2022/08/27 09:49:16;;;;;;;8.20;3.30;;;19.60;99.10;;;;;;5053492;28;20045;-54
2022/08/27 09:51:43;;;;;;;10.13;3.38;;;19.70;98.50;;;;;;5061566;28;20033;-55
2022/08/27 09:54:09;;;;;;;13.07;3.30;;;19.70;98.70;;;;;;5057227;28;20041;-52
2022/08/27 09:56:36;;;;;;;6.55;3.40;;;19.80;98.80;;;;;;5062161;28;20033;-51
2022/08/27 09:59:03;;;;;;;7.80;2.97;;;19.80;98.90;;;;;;5068059;28;20032;-52
2022/08/27 10:01:30;;;;;;;10.48;3.00;;;19.90;98.90;;;;;;5071851;28;20044;-52
2022/08/27 10:03:57;;;;;;;9.35;2.78;;;20.00;99.10;;;;;;5054429;28;20055;-50
2022/08/27 10:06:23;;;;;;;8.23;2.95;;;20.00;98.60;;;;;;5053932;28;20125;-52
2022/08/27 10:08:50;;;;;;;8.90;2.92;;;20.00;98.90;;;;;;5053917;28;20045;-52
2022/08/27 10:11:17;;;;;;;7.45;2.95;;;20.00;98.20;;;;;;5053564;28;20387;-53
2022/08/27 10:13:44;;;;;;;8.55;3.28;;;20.10;98.20;;;;;;5054780;28;20037;-53
2022/08/27 10:16:10;;;;;;;9.13;3.28;;;20.20;98.50;;;;;;5073912;28;20153;-50
2022/08/27 10:18:40;;;;;;;7.80;3.25;;;20.20;98.10;;;;;;5073701;28;20052;-51
2022/08/27 10:21:06;;;;;;;7.80;3.33;;;20.30;97.30;;;;;;5066950;28;20041;-52
2022/08/27 10:23:34;;;;;;;6.55;2.70;;;20.30;97.20;;;;;;5062560;28;20041;-54
2022/08/27 10:26:00;;;;;;;7.35;3.40;;;20.40;96.70;;;;;;5064215;28;20419;-53
2022/08/27 10:28:27;;;;;;;11.60;5.60;;;20.40;96.70;;;;;;5053146;28;20492;-51
2022/08/27 10:30:54;;;;;;;9.85;4.70;;;20.40;96.70;;;;;;5067011;28;20479;-52
2022/08/27 10:33:21;;;;;;;8.60;3.30;;;20.40;96.70;;;;;;5065841;28;20442;-55
2022/08/27 10:35:49;;;;;;;7.15;2.85;;;20.60;96.70;;;;;;5054963;28;20511;-52
2022/08/27 10:38:20;;;;;;;7.15;3.15;;;20.70;96.40;;;;;;5053814;28;20047;-50
2022/08/27 10:40:47;;;;;;;7.28;2.75;;;20.80;95.70;;;;;;5064043;28;20047;-52
2022/08/27 10:43:14;;;;;;;6.53;2.30;;;20.80;94.30;;;;;;5052808;28;20128;-54
2022/08/27 10:45:41;;;;;;;6.28;2.53;;;20.90;95.20;;;;;;5064088;28;20102;-49
2022/08/27 10:48:08;;;;;;;5.88;2.38;;;21.00;95.50;;;;;;5069502;28;20072;-52
2022/08/27 10:50:35;;;;;;;17.80;2.58;;;21.10;95.50;;;;;;5061181;28;20495;-53
2022/08/27 10:53:02;;;;;;;8.95;2.50;;;21.20;95.20;;;;;;5058004;28;20491;-55
2022/08/27 10:55:29;;;;;;;4.95;2.00;;;21.20;96.10;;;;;;5069105;28;20061;-56
2022/08/27 10:57:56;;;;;;;7.60;2.10;;;21.30;95.90;;;;;;5054987;28;20037;-52
2022/08/27 11:00:26;;;;;;;6.97;2.22;;;21.40;94.80;;;;;;5078174;28;20071;-52
2022/08/27 11:02:53;;;;;;;6.85;2.08;;;21.40;94.90;;;;;;5076069;28;20062;-54
2022/08/27 11:05:20;;;;;;;6.43;2.00;;;21.40;94.60;;;;;;5076996;28;20033;-54
2022/08/27 11:07:47;;;;;;;6.13;2.30;;;21.50;95.10;;;;;;5077667;28;20049;-53
2022/08/27 11:10:14;;;;;;;6.82;2.45;;;21.70;94.50;;;;;;5071063;28;20033;-53
2022/08/27 11:12:46;;;;;;;6.05;2.20;;;21.80;94.60;;;;;;5073545;28;20117;-54
2022/08/27 11:15:13;;;;;;;6.00;2.30;;;21.90;93.50;;;;;;5066431;28;20041;-54
2022/08/27 11:17:40;;;;;;;6.78;2.00;;;21.90;93.90;;;;;;5074797;28;20037;-55
2022/08/27 11:20:07;;;;;;;4.38;1.67;;;21.90;93.00;;;;;;5073261;28;20140;-54
2022/08/27 11:22:34;;;;;;;6.97;2.70;;;21.80;92.40;;;;;;5060585;28;20043;-54
2022/08/27 11:25:01;;;;;;;5.15;1.60;;;21.80;92.40;;;;;;5073039;28;20117;-54
2022/08/27 11:27:37;;;;;;;6.82;2.53;;;21.80;92.60;;;;;;5068278;28;20479;-53
2022/08/27 11:30:04;;;;;;;7.53;2.05;;;21.80;92.90;;;;;;5068024;28;20047;-52
2022/08/27 11:32:31;;;;;;;7.07;2.38;;;21.80;92.90;;;;;;5056128;28;20040;-53
2022/08/27 11:34:57;;;;;;;4.55;2.15;;;21.90;93.40;;;;;;5055971;28;20033;-52
2022/08/27 11:37:24;;;;;;;5.03;1.70;;;22.10;92.60;;;;;;5056805;28;20041;-51
2022/08/27 11:39:51;;;;;;;9.32;2.08;;;22.10;92.80;;;;;;5057198;28;20048;-56
2022/08/27 11:42:18;;;;;;;5.93;1.92;;;22.20;91.90;;;;;;5056480;28;20112;-55
2022/08/27 11:44:45;;;;;;;5.85;1.95;;;22.20;91.90;;;;;;5057082;28;20037;-51
2022/08/27 11:47:12;;;;;;;4.95;2.10;;;22.30;91.70;;;;;;5056895;28;20049;-51
2022/08/27 11:49:39;;;;;;;6.03;1.90;;;22.40;91.50;;;;;;5056520;28;20041;-54
2022/08/27 11:52:08;;;;;;;7.47;2.00;;;22.50;92.10;;;;;;5056393;28;20047;-53
2022/08/27 11:54:35;;;;;;;9.02;2.30;;;22.70;92.00;;;;;;5062039;28;20069;-54
2022/08/27 11:57:02;;;;;;;5.50;2.20;;;22.80;91.50;;;;;;5081534;28;20036;-53
2022/08/27 11:59:29;;;;;;;5.43;2.45;;;22.70;90.90;;;;;;5086610;28;20035;-56
2022/08/27 12:01:56;;;;;;;9.68;2.67;;;22.70;91.10;;;;;;5061412;28;20045;-53
2022/08/27 12:04:23;;;;;;;8.75;2.50;;;22.80;90.90;;;;;;5056672;28;20403;-55
2022/08/27 12:06:50;;;;;;;5.20;2.65;;;22.80;90.40;;;;;;5055654;28;20455;-55
2022/08/27 12:09:18;;;;;;;5.82;2.13;;;22.90;91.00;;;;;;5055623;28;20040;-55
2022/08/27 12:11:45;;;;;;;5.70;2.90;;;23.00;90.70;;;;;;5065212;28;20044;-53
2022/08/27 12:14:13;;;;;;;5.50;2.13;;;23.00;90.80;;;;;;5062498;28;20044;-54
2022/08/27 12:16:40;;;;;;;3.90;1.60;;;23.00;90.70;;;;;;5056205;28;20116;-52
2022/08/27 12:19:07;;;;;;;5.93;2.08;;;23.00;90.10;;;;;;5059962;28;20102;-54
2022/08/27 12:21:34;;;;;;;4.68;2.17;;;22.90;89.30;;;;;;5064686;28;20479;-52
2022/08/27 12:24:01;;;;;;;6.55;2.40;;;22.90;90.00;;;;;;5069010;28;20049;-54
2022/08/27 12:26:28;;;;;;;5.93;2.15;;;22.90;90.20;;;;;;5074875;28;20054;-50
2022/08/27 12:28:54;;;;;;;8.23;2.65;;;22.80;90.50;;;;;;5056274;28;20504;-52
2022/08/27 12:31:21;;;;;;;6.57;2.33;;;22.90;90.70;;;;;;5055246;28;20045;-56
2022/08/27 12:33:48;;;;;;;8.52;2.55;;;22.90;90.60;;;;;;5055492;28;20037;-52
2022/08/27 12:36:15;;;;;;;4.90;1.60;;;23.00;88.70;;;;;;5054856;28;20033;-53
2022/08/27 12:38:53;;;;;;;5.05;1.80;;;23.00;88.90;;;;;;5056193;28;20075;-54
2022/08/27 12:41:20;;;;;;;6.28;2.00;;;23.20;90.20;;;;;;5056475;28;20028;-52
2022/08/27 12:43:47;;;;;;;7.85;1.80;;;23.40;88.60;;;;;;5067603;28;20037;-55
2022/08/27 12:46:14;;;;;;;4.90;1.77;;;23.50;87.40;;;;;;5054521;28;20399;-54
2022/08/27 12:48:41;;;;;;;4.90;1.70;;;23.50;86.30;;;;;;5053618;28;20040;-50
2022/08/27 12:51:08;;;;;;;5.55;1.90;;;23.50;86.60;;;;;;5055201;28;20495;-54
2022/08/27 12:53:35;;;;;;;2.88;1.65;;;23.40;86.50;;;;;;5055555;28;20056;-51
2022/08/27 12:56:01;;;;;;;4.07;1.67;;;23.30;87.20;;;;;;5071581;28;20480;-55
2022/08/27 12:58:28;;;;;;;5.13;1.45;;;23.20;84.90;;;;;;5075402;28;20047;-54